sensor_id;sensor_type;location;lat;lon;timestamp;P1;durP1;ratioP1;P2;durP2;ratioP2
17753;SDS011;8999;48.994;9.150;2023-12-20T00:02:40;15.27;;;9.63;;
17753;SDS011;8999;48.994;9.150;2023-12-20T00:05:17;13.63;;;8.70;;
17753;SDS011;8999;48.994;9.150;2023-12-20T00:07:50;15.85;;;9.90;;
17753;SDS011;8999;48.994;9.150;2023-12-20T00:10:22;15.18;;;9.25;;
17753;SDS011;8999;48.994;9.150;2023-12-20T00:12:55;15.63;;;9.80;;
17753;SDS011;8999;48.994;9.150;2023-12-20T00:15:30;15.45;;;9.38;;
17753;SDS011;8999;48.994;9.150;2023-12-20T00:18:05;16.13;;;9.55;;
17753;SDS011;8999;48.994;9.150;2023-12-20T00:20:44;13.38;;;8.35;;
17753;SDS011;8999;48.994;9.150;2023-12-20T00:23:16;16.70;;;9.95;;
17753;SDS011;8999;48.994;9.150;2023-12-20T00:25:48;13.98;;;9.45;;
17753;SDS011;8999;48.994;9.150;2023-12-20T00:28:21;13.75;;;8.40;;
17753;SDS011;8999;48.994;9.150;2023-12-20T00:30:53;13.43;;;8.32;;
17753;SDS011;8999;48.994;9.150;2023-12-20T00:33:24;13.70;;;9.00;;
17753;SDS011;8999;48.994;9.150;2023-12-20T00:35:57;16.50;;;10.35;;
17753;SDS011;8999;48.994;9.150;2023-12-20T00:38:28;16.23;;;9.77;;
17753;SDS011;8999;48.994;9.150;2023-12-20T00:41:00;17.42;;;11.05;;
17753;SDS011;8999;48.994;9.150;2023-12-20T00:43:33;18.95;;;11.40;;
17753;SDS011;8999;48.994;9.150;2023-12-20T00:46:05;21.27;;;12.00;;
17753;SDS011;8999;48.994;9.150;2023-12-20T00:48:37;21.35;;;10.90;;
17753;SDS011;8999;48.994;9.150;2023-12-20T00:51:08;20.65;;;12.00;;
17753;SDS011;8999;48.994;9.150;2023-12-20T00:53:40;20.80;;;12.27;;
17753;SDS011;8999;48.994;9.150;2023-12-20T00:56:13;21.05;;;12.13;;
17753;SDS011;8999;48.994;9.150;2023-12-20T00:58:47;17.63;;;11.05;;
17753;SDS011;8999;48.994;9.150;2023-12-20T01:01:19;19.35;;;11.77;;
17753;SDS011;8999;48.994;9.150;2023-12-20T01:04:18;17.60;;;11.30;;
17753;SDS011;8999;48.994;9.150;2023-12-20T01:06:55;18.50;;;11.48;;
17753;SDS011;8999;48.994;9.150;2023-12-20T01:09:58;19.20;;;12.02;;
17753;SDS011;8999;48.994;9.150;2023-12-20T01:12:30;22.02;;;12.27;;
17753;SDS011;8999;48.994;9.150;2023-12-20T01:15:05;18.20;;;11.80;;
17753;SDS011;8999;48.994;9.150;2023-12-20T01:17:39;18.90;;;11.35;;
17753;SDS011;8999;48.994;9.150;2023-12-20T01:20:13;19.65;;;11.00;;
17753;SDS011;8999;48.994;9.150;2023-12-20T01:22:54;21.67;;;11.75;;
17753;SDS011;8999;48.994;9.150;2023-12-20T01:25:32;18.70;;;11.85;;
17753;SDS011;8999;48.994;9.150;2023-12-20T01:28:09;22.35;;;12.38;;
17753;SDS011;8999;48.994;9.150;2023-12-20T01:30:48;19.88;;;12.23;;
17753;SDS011;8999;48.994;9.150;2023-12-20T01:33:25;18.27;;;11.60;;
17753;SDS011;8999;48.994;9.150;2023-12-20T01:36:30;18.38;;;11.13;;
17753;SDS011;8999;48.994;9.150;2023-12-20T01:39:02;12.57;;;6.57;;
17753;SDS011;8999;48.994;9.150;2023-12-20T01:41:34;9.02;;;5.43;;
17753;SDS011;8999;48.994;9.150;2023-12-20T01:44:05;15.07;;;7.07;;
17753;SDS011;8999;48.994;9.150;2023-12-20T01:46:38;9.93;;;5.90;;
17753;SDS011;8999;48.994;9.150;2023-12-20T01:49:10;7.10;;;3.53;;
17753;SDS011;8999;48.994;9.150;2023-12-20T01:51:42;7.10;;;3.95;;
17753;SDS011;8999;48.994;9.150;2023-12-20T01:54:14;6.40;;;3.75;;
17753;SDS011;8999;48.994;9.150;2023-12-20T01:56:46;6.85;;;3.92;;
17753;SDS011;8999;48.994;9.150;2023-12-20T01:59:18;8.63;;;4.13;;
17753;SDS011;8999;48.994;9.150;2023-12-20T02:01:51;4.97;;;3.28;;
17753;SDS011;8999;48.994;9.150;2023-12-20T02:04:23;7.70;;;4.07;;
17753;SDS011;8999;48.994;9.150;2023-12-20T02:06:55;8.07;;;3.72;;
17753;SDS011;8999;48.994;9.150;2023-12-20T02:09:27;5.38;;;2.60;;
17753;SDS011;8999;48.994;9.150;2023-12-20T02:11:59;7.25;;;3.40;;
17753;SDS011;8999;48.994;9.150;2023-12-20T02:14:31;5.13;;;3.25;;
17753;SDS011;8999;48.994;9.150;2023-12-20T02:17:04;4.20;;;2.80;;
17753;SDS011;8999;48.994;9.150;2023-12-20T02:19:35;5.18;;;3.00;;
17753;SDS011;8999;48.994;9.150;2023-12-20T02:22:09;5.47;;;3.50;;
17753;SDS011;8999;48.994;9.150;2023-12-20T02:24:41;3.92;;;2.80;;
17753;SDS011;8999;48.994;9.150;2023-12-20T02:27:13;6.63;;;3.08;;
17753;SDS011;8999;48.994;9.150;2023-12-20T02:29:45;4.72;;;2.80;;
17753;SDS011;8999;48.994;9.150;2023-12-20T02:32:18;4.55;;;2.63;;
17753;SDS011;8999;48.994;9.150;2023-12-20T02:34:50;4.60;;;2.65;;
17753;SDS011;8999;48.994;9.150;2023-12-20T02:37:23;3.92;;;2.50;;
17753;SDS011;8999;48.994;9.150;2023-12-20T02:39:55;3.88;;;2.47;;
17753;SDS011;8999;48.994;9.150;2023-12-20T02:42:26;2.38;;;1.85;;
17753;SDS011;8999;48.994;9.150;2023-12-20T02:44:58;3.53;;;2.25;;
17753;SDS011;8999;48.994;9.150;2023-12-20T02:47:30;3.17;;;2.40;;
17753;SDS011;8999;48.994;9.150;2023-12-20T02:50:01;4.70;;;2.55;;
17753;SDS011;8999;48.994;9.150;2023-12-20T02:52:34;2.88;;;2.00;;
17753;SDS011;8999;48.994;9.150;2023-12-20T02:55:06;2.08;;;1.55;;
17753;SDS011;8999;48.994;9.150;2023-12-20T02:57:38;1.70;;;1.40;;
17753;SDS011;8999;48.994;9.150;2023-12-20T03:00:12;1.42;;;1.33;;
17753;SDS011;8999;48.994;9.150;2023-12-20T03:02:44;1.30;;;1.20;;
17753;SDS011;8999;48.994;9.150;2023-12-20T03:05:15;1.83;;;1.20;;
17753;SDS011;8999;48.994;9.150;2023-12-20T03:07:47;1.45;;;1.02;;
17753;SDS011;8999;48.994;9.150;2023-12-20T03:10:19;1.10;;;1.00;;
17753;SDS011;8999;48.994;9.150;2023-12-20T03:12:50;2.40;;;1.40;;
17753;SDS011;8999;48.994;9.150;2023-12-20T03:15:23;2.50;;;1.40;;
17753;SDS011;8999;48.994;9.150;2023-12-20T03:17:54;2.85;;;1.13;;
17753;SDS011;8999;48.994;9.150;2023-12-20T03:20:26;2.20;;;1.15;;
17753;SDS011;8999;48.994;9.150;2023-12-20T03:22:59;2.35;;;1.48;;
17753;SDS011;8999;48.994;9.150;2023-12-20T03:25:31;3.03;;;1.42;;
17753;SDS011;8999;48.994;9.150;2023-12-20T03:28:04;3.00;;;1.30;;
17753;SDS011;8999;48.994;9.150;2023-12-20T03:30:36;1.98;;;1.10;;
17753;SDS011;8999;48.994;9.150;2023-12-20T03:33:08;1.65;;;1.25;;
17753;SDS011;8999;48.994;9.150;2023-12-20T03:35:40;2.80;;;1.20;;
17753;SDS011;8999;48.994;9.150;2023-12-20T03:38:14;2.63;;;1.10;;
17753;SDS011;8999;48.994;9.150;2023-12-20T03:40:46;3.53;;;1.45;;
17753;SDS011;8999;48.994;9.150;2023-12-20T03:43:17;2.88;;;1.20;;
17753;SDS011;8999;48.994;9.150;2023-12-20T03:45:49;1.55;;;1.13;;
17753;SDS011;8999;48.994;9.150;2023-12-20T03:48:21;1.92;;;1.13;;
17753;SDS011;8999;48.994;9.150;2023-12-20T03:50:53;2.80;;;1.30;;
17753;SDS011;8999;48.994;9.150;2023-12-20T03:53:26;1.83;;;1.23;;
17753;SDS011;8999;48.994;9.150;2023-12-20T03:55:58;3.33;;;1.30;;
17753;SDS011;8999;48.994;9.150;2023-12-20T03:58:30;1.92;;;1.08;;
17753;SDS011;8999;48.994;9.150;2023-12-20T04:01:02;2.60;;;1.10;;
17753;SDS011;8999;48.994;9.150;2023-12-20T04:03:34;1.50;;;1.10;;
17753;SDS011;8999;48.994;9.150;2023-12-20T04:06:07;2.08;;;1.10;;
17753;SDS011;8999;48.994;9.150;2023-12-20T04:08:40;15.95;;;7.35;;
17753;SDS011;8999;48.994;9.150;2023-12-20T04:11:12;1.50;;;1.10;;
17753;SDS011;8999;48.994;9.150;2023-12-20T04:13:43;1.27;;;0.90;;
17753;SDS011;8999;48.994;9.150;2023-12-20T04:16:15;1.95;;;1.13;;
17753;SDS011;8999;48.994;9.150;2023-12-20T04:18:47;2.75;;;1.17;;
17753;SDS011;8999;48.994;9.150;2023-12-20T04:21:18;18.83;;;7.25;;
17753;SDS011;8999;48.994;9.150;2023-12-20T04:23:51;1.33;;;1.20;;
17753;SDS011;8999;48.994;9.150;2023-12-20T04:26:23;1.33;;;1.00;;
17753;SDS011;8999;48.994;9.150;2023-12-20T04:28:55;1.30;;;1.15;;
17753;SDS011;8999;48.994;9.150;2023-12-20T04:31:26;10.80;;;4.72;;
17753;SDS011;8999;48.994;9.150;2023-12-20T04:33:58;2.58;;;1.50;;
17753;SDS011;8999;48.994;9.150;2023-12-20T04:36:30;1.70;;;1.00;;
17753;SDS011;8999;48.994;9.150;2023-12-20T04:39:03;4.82;;;2.35;;
17753;SDS011;8999;48.994;9.150;2023-12-20T04:41:34;3.75;;;1.92;;
17753;SDS011;8999;48.994;9.150;2023-12-20T04:44:06;1.13;;;1.02;;
17753;SDS011;8999;48.994;9.150;2023-12-20T04:46:38;1.23;;;1.00;;
17753;SDS011;8999;48.994;9.150;2023-12-20T04:49:09;1.60;;;1.30;;
17753;SDS011;8999;48.994;9.150;2023-12-20T04:51:41;1.58;;;1.33;;
17753;SDS011;8999;48.994;9.150;2023-12-20T04:54:16;1.48;;;1.10;;
17753;SDS011;8999;48.994;9.150;2023-12-20T04:56:49;1.50;;;1.20;;
17753;SDS011;8999;48.994;9.150;2023-12-20T04:59:22;1.80;;;1.35;;
17753;SDS011;8999;48.994;9.150;2023-12-20T05:01:54;2.30;;;1.50;;
17753;SDS011;8999;48.994;9.150;2023-12-20T05:04:26;1.98;;;1.40;;
17753;SDS011;8999;48.994;9.150;2023-12-20T05:06:57;1.63;;;1.20;;
17753;SDS011;8999;48.994;9.150;2023-12-20T05:09:31;2.03;;;1.50;;
17753;SDS011;8999;48.994;9.150;2023-12-20T05:12:02;1.50;;;1.40;;
17753;SDS011;8999;48.994;9.150;2023-12-20T05:14:34;1.98;;;1.70;;
17753;SDS011;8999;48.994;9.150;2023-12-20T05:17:06;1.88;;;1.63;;
17753;SDS011;8999;48.994;9.150;2023-12-20T05:19:38;2.47;;;1.50;;
17753;SDS011;8999;48.994;9.150;2023-12-20T05:22:10;2.25;;;1.83;;
17753;SDS011;8999;48.994;9.150;2023-12-20T05:24:43;3.10;;;2.80;;
17753;SDS011;8999;48.994;9.150;2023-12-20T05:27:15;2.75;;;2.30;;
17753;SDS011;8999;48.994;9.150;2023-12-20T05:29:47;2.13;;;1.80;;
17753;SDS011;8999;48.994;9.150;2023-12-20T05:32:19;2.47;;;2.13;;
17753;SDS011;8999;48.994;9.150;2023-12-20T05:34:51;3.17;;;2.40;;
17753;SDS011;8999;48.994;9.150;2023-12-20T05:37:23;3.13;;;2.30;;
17753;SDS011;8999;48.994;9.150;2023-12-20T05:39:56;3.03;;;2.30;;
17753;SDS011;8999;48.994;9.150;2023-12-20T05:42:27;3.58;;;2.50;;
17753;SDS011;8999;48.994;9.150;2023-12-20T05:44:59;2.75;;;2.15;;
17753;SDS011;8999;48.994;9.150;2023-12-20T05:47:31;3.10;;;2.17;;
17753;SDS011;8999;48.994;9.150;2023-12-20T05:50:03;2.30;;;2.10;;
17753;SDS011;8999;48.994;9.150;2023-12-20T05:52:35;4.10;;;2.53;;
17753;SDS011;8999;48.994;9.150;2023-12-20T05:55:08;2.97;;;2.00;;
17753;SDS011;8999;48.994;9.150;2023-12-20T05:57:39;2.67;;;2.30;;
17753;SDS011;8999;48.994;9.150;2023-12-20T06:00:13;2.35;;;1.80;;
17753;SDS011;8999;48.994;9.150;2023-12-20T06:02:45;2.28;;;1.70;;
17753;SDS011;8999;48.994;9.150;2023-12-20T06:05:17;2.38;;;1.90;;
17753;SDS011;8999;48.994;9.150;2023-12-20T06:07:49;3.45;;;1.95;;
17753;SDS011;8999;48.994;9.150;2023-12-20T06:10:22;2.88;;;2.10;;
17753;SDS011;8999;48.994;9.150;2023-12-20T06:12:54;3.08;;;2.50;;
17753;SDS011;8999;48.994;9.150;2023-12-20T06:15:26;2.80;;;2.33;;
17753;SDS011;8999;48.994;9.150;2023-12-20T06:17:58;3.42;;;2.22;;
17753;SDS011;8999;48.994;9.150;2023-12-20T06:20:29;2.72;;;2.17;;
17753;SDS011;8999;48.994;9.150;2023-12-20T06:23:01;2.92;;;2.30;;
17753;SDS011;8999;48.994;9.150;2023-12-20T06:25:34;3.50;;;2.78;;
17753;SDS011;8999;48.994;9.150;2023-12-20T06:28:06;3.78;;;2.83;;
17753;SDS011;8999;48.994;9.150;2023-12-20T06:30:38;3.72;;;3.05;;
17753;SDS011;8999;48.994;9.150;2023-12-20T06:33:09;6.80;;;3.20;;
17753;SDS011;8999;48.994;9.150;2023-12-20T06:35:41;5.35;;;3.80;;
17753;SDS011;8999;48.994;9.150;2023-12-20T06:38:13;5.43;;;3.60;;
17753;SDS011;8999;48.994;9.150;2023-12-20T06:40:46;5.90;;;4.00;;
17753;SDS011;8999;48.994;9.150;2023-12-20T06:43:17;5.80;;;4.30;;
17753;SDS011;8999;48.994;9.150;2023-12-20T06:45:49;6.45;;;4.55;;
17753;SDS011;8999;48.994;9.150;2023-12-20T06:48:21;6.60;;;4.70;;
17753;SDS011;8999;48.994;9.150;2023-12-20T06:50:52;6.55;;;5.00;;
17753;SDS011;8999;48.994;9.150;2023-12-20T06:53:24;6.22;;;4.57;;
17753;SDS011;8999;48.994;9.150;2023-12-20T06:55:57;6.25;;;4.70;;
17753;SDS011;8999;48.994;9.150;2023-12-20T06:58:28;6.20;;;4.35;;
17753;SDS011;8999;48.994;9.150;2023-12-20T07:01:00;6.22;;;4.70;;
17753;SDS011;8999;48.994;9.150;2023-12-20T07:03:32;6.82;;;5.15;;
17753;SDS011;8999;48.994;9.150;2023-12-20T07:06:03;7.68;;;5.15;;
17753;SDS011;8999;48.994;9.150;2023-12-20T07:08:35;7.05;;;4.75;;
17753;SDS011;8999;48.994;9.150;2023-12-20T07:11:08;7.05;;;4.85;;
17753;SDS011;8999;48.994;9.150;2023-12-20T07:13:40;6.10;;;4.47;;
17753;SDS011;8999;48.994;9.150;2023-12-20T07:16:11;6.53;;;4.80;;
17753;SDS011;8999;48.994;9.150;2023-12-20T07:18:43;6.13;;;4.82;;
17753;SDS011;8999;48.994;9.150;2023-12-20T07:21:15;7.22;;;5.57;;
17753;SDS011;8999;48.994;9.150;2023-12-20T07:23:46;6.80;;;5.05;;
17753;SDS011;8999;48.994;9.150;2023-12-20T07:26:19;8.07;;;5.47;;
17753;SDS011;8999;48.994;9.150;2023-12-20T07:28:51;7.03;;;5.50;;
17753;SDS011;8999;48.994;9.150;2023-12-20T07:31:22;7.47;;;5.80;;
17753;SDS011;8999;48.994;9.150;2023-12-20T07:33:54;7.50;;;5.78;;
17753;SDS011;8999;48.994;9.150;2023-12-20T07:36:26;8.13;;;5.82;;
17753;SDS011;8999;48.994;9.150;2023-12-20T07:38:57;9.35;;;6.07;;
17753;SDS011;8999;48.994;9.150;2023-12-20T07:41:30;8.05;;;6.05;;
17753;SDS011;8999;48.994;9.150;2023-12-20T07:44:03;7.97;;;5.72;;
17753;SDS011;8999;48.994;9.150;2023-12-20T07:46:35;7.78;;;5.68;;
17753;SDS011;8999;48.994;9.150;2023-12-20T07:49:07;9.65;;;6.32;;
17753;SDS011;8999;48.994;9.150;2023-12-20T07:51:40;8.45;;;5.57;;
17753;SDS011;8999;48.994;9.150;2023-12-20T07:54:11;7.80;;;5.68;;
17753;SDS011;8999;48.994;9.150;2023-12-20T07:56:44;7.10;;;5.13;;
17753;SDS011;8999;48.994;9.150;2023-12-20T07:59:16;7.45;;;5.57;;
17753;SDS011;8999;48.994;9.150;2023-12-20T08:01:48;7.00;;;5.18;;
17753;SDS011;8999;48.994;9.150;2023-12-20T08:04:20;6.88;;;4.95;;
17753;SDS011;8999;48.994;9.150;2023-12-20T08:06:52;6.95;;;5.05;;
17753;SDS011;8999;48.994;9.150;2023-12-20T08:09:24;6.85;;;4.82;;
17753;SDS011;8999;48.994;9.150;2023-12-20T08:11:57;6.43;;;4.82;;
17753;SDS011;8999;48.994;9.150;2023-12-20T08:14:30;7.30;;;4.78;;
17753;SDS011;8999;48.994;9.150;2023-12-20T08:17:02;7.70;;;5.00;;
17753;SDS011;8999;48.994;9.150;2023-12-20T08:19:34;7.53;;;4.80;;
17753;SDS011;8999;48.994;9.150;2023-12-20T08:22:06;6.35;;;4.63;;
17753;SDS011;8999;48.994;9.150;2023-12-20T08:24:38;6.25;;;4.90;;
17753;SDS011;8999;48.994;9.150;2023-12-20T08:27:13;5.50;;;4.40;;
17753;SDS011;8999;48.994;9.150;2023-12-20T08:29:46;6.35;;;4.68;;
17753;SDS011;8999;48.994;9.150;2023-12-20T08:32:17;6.70;;;4.32;;
17753;SDS011;8999;48.994;9.150;2023-12-20T08:34:49;5.78;;;4.15;;
17753;SDS011;8999;48.994;9.150;2023-12-20T08:37:21;6.30;;;4.15;;
17753;SDS011;8999;48.994;9.150;2023-12-20T08:39:53;5.53;;;3.60;;
17753;SDS011;8999;48.994;9.150;2023-12-20T08:42:26;6.07;;;3.70;;
17753;SDS011;8999;48.994;9.150;2023-12-20T08:45:01;4.30;;;3.05;;
17753;SDS011;8999;48.994;9.150;2023-12-20T08:47:34;9.18;;;3.58;;
17753;SDS011;8999;48.994;9.150;2023-12-20T08:50:07;5.78;;;3.58;;
17753;SDS011;8999;48.994;9.150;2023-12-20T08:52:39;8.10;;;3.53;;
17753;SDS011;8999;48.994;9.150;2023-12-20T08:55:10;6.10;;;3.28;;
17753;SDS011;8999;48.994;9.150;2023-12-20T08:57:44;4.97;;;3.35;;
17753;SDS011;8999;48.994;9.150;2023-12-20T09:00:16;9.50;;;4.00;;
17753;SDS011;8999;48.994;9.150;2023-12-20T09:02:50;6.95;;;4.18;;
17753;SDS011;8999;48.994;9.150;2023-12-20T09:05:22;6.63;;;3.70;;
17753;SDS011;8999;48.994;9.150;2023-12-20T09:07:53;9.93;;;5.30;;
17753;SDS011;8999;48.994;9.150;2023-12-20T09:10:25;6.40;;;4.07;;
17753;SDS011;8999;48.994;9.150;2023-12-20T09:12:58;8.82;;;5.60;;
17753;SDS011;8999;48.994;9.150;2023-12-20T09:15:30;7.97;;;4.00;;
17753;SDS011;8999;48.994;9.150;2023-12-20T09:18:04;5.97;;;4.45;;
17753;SDS011;8999;48.994;9.150;2023-12-20T09:20:36;6.10;;;4.30;;
17753;SDS011;8999;48.994;9.150;2023-12-20T09:23:07;10.00;;;3.53;;
17753;SDS011;8999;48.994;9.150;2023-12-20T09:25:39;7.60;;;4.55;;
17753;SDS011;8999;48.994;9.150;2023-12-20T09:28:12;6.68;;;4.15;;
17753;SDS011;8999;48.994;9.150;2023-12-20T09:30:44;7.03;;;4.60;;
17753;SDS011;8999;48.994;9.150;2023-12-20T09:33:16;7.82;;;3.75;;
17753;SDS011;8999;48.994;9.150;2023-12-20T09:35:47;9.25;;;5.15;;
17753;SDS011;8999;48.994;9.150;2023-12-20T09:38:19;7.68;;;3.42;;
17753;SDS011;8999;48.994;9.150;2023-12-20T09:40:51;4.05;;;3.42;;
17753;SDS011;8999;48.994;9.150;2023-12-20T09:43:25;6.75;;;3.13;;
17753;SDS011;8999;48.994;9.150;2023-12-20T09:45:59;5.88;;;3.08;;
17753;SDS011;8999;48.994;9.150;2023-12-20T09:48:32;4.40;;;2.53;;
17753;SDS011;8999;48.994;9.150;2023-12-20T09:51:04;7.82;;;3.10;;
17753;SDS011;8999;48.994;9.150;2023-12-20T09:53:36;5.00;;;2.50;;
17753;SDS011;8999;48.994;9.150;2023-12-20T09:56:08;6.32;;;2.60;;
17753;SDS011;8999;48.994;9.150;2023-12-20T09:58:41;5.80;;;2.85;;
17753;SDS011;8999;48.994;9.150;2023-12-20T10:01:13;4.15;;;2.35;;
17753;SDS011;8999;48.994;9.150;2023-12-20T10:03:45;5.15;;;2.42;;
17753;SDS011;8999;48.994;9.150;2023-12-20T10:06:17;6.97;;;2.42;;
17753;SDS011;8999;48.994;9.150;2023-12-20T10:08:48;9.68;;;2.50;;
17753;SDS011;8999;48.994;9.150;2023-12-20T10:11:20;5.35;;;2.50;;
17753;SDS011;8999;48.994;9.150;2023-12-20T10:13:58;7.47;;;4.05;;
17753;SDS011;8999;48.994;9.150;2023-12-20T10:16:30;5.18;;;2.00;;
17753;SDS011;8999;48.994;9.150;2023-12-20T10:19:02;6.50;;;2.85;;
17753;SDS011;8999;48.994;9.150;2023-12-20T10:21:34;5.95;;;2.72;;
17753;SDS011;8999;48.994;9.150;2023-12-20T10:24:06;5.18;;;2.10;;
17753;SDS011;8999;48.994;9.150;2023-12-20T10:26:38;9.90;;;3.30;;
17753;SDS011;8999;48.994;9.150;2023-12-20T10:29:11;7.75;;;3.47;;
17753;SDS011;8999;48.994;9.150;2023-12-20T10:31:43;6.18;;;2.70;;
17753;SDS011;8999;48.994;9.150;2023-12-20T10:34:15;4.05;;;2.17;;
17753;SDS011;8999;48.994;9.150;2023-12-20T10:36:47;9.05;;;2.15;;
17753;SDS011;8999;48.994;9.150;2023-12-20T10:39:18;4.57;;;1.85;;
17753;SDS011;8999;48.994;9.150;2023-12-20T10:41:50;10.27;;;2.40;;
17753;SDS011;8999;48.994;9.150;2023-12-20T10:44:23;6.22;;;2.10;;
17753;SDS011;8999;48.994;9.150;2023-12-20T10:46:55;6.47;;;1.92;;
17753;SDS011;8999;48.994;9.150;2023-12-20T10:49:29;5.43;;;1.58;;
17753;SDS011;8999;48.994;9.150;2023-12-20T10:52:01;3.38;;;1.48;;
17753;SDS011;8999;48.994;9.150;2023-12-20T10:54:34;5.28;;;2.15;;
17753;SDS011;8999;48.994;9.150;2023-12-20T10:57:06;2.38;;;1.33;;
17753;SDS011;8999;48.994;9.150;2023-12-20T10:59:39;4.18;;;1.73;;
17753;SDS011;8999;48.994;9.150;2023-12-20T11:02:11;6.38;;;1.60;;
17753;SDS011;8999;48.994;9.150;2023-12-20T11:04:44;5.47;;;1.80;;
17753;SDS011;8999;48.994;9.150;2023-12-20T11:07:21;3.00;;;1.67;;
17753;SDS011;8999;48.994;9.150;2023-12-20T11:09:56;3.38;;;1.45;;
17753;SDS011;8999;48.994;9.150;2023-12-20T11:12:32;4.10;;;1.40;;
17753;SDS011;8999;48.994;9.150;2023-12-20T11:15:09;7.88;;;1.38;;
17753;SDS011;8999;48.994;9.150;2023-12-20T11:17:42;3.55;;;1.45;;
17753;SDS011;8999;48.994;9.150;2023-12-20T11:20:16;6.95;;;1.67;;
17753;SDS011;8999;48.994;9.150;2023-12-20T11:22:54;6.28;;;1.80;;
17753;SDS011;8999;48.994;9.150;2023-12-20T11:25:26;5.88;;;1.83;;
17753;SDS011;8999;48.994;9.150;2023-12-20T11:28:07;7.28;;;1.90;;
17753;SDS011;8999;48.994;9.150;2023-12-20T11:30:46;8.27;;;2.58;;
17753;SDS011;8999;48.994;9.150;2023-12-20T11:33:22;4.32;;;2.30;;
17753;SDS011;8999;48.994;9.150;2023-12-20T11:35:55;8.18;;;2.25;;
17753;SDS011;8999;48.994;9.150;2023-12-20T11:38:27;5.60;;;1.95;;
17753;SDS011;8999;48.994;9.150;2023-12-20T11:40:58;6.93;;;2.20;;
17753;SDS011;8999;48.994;9.150;2023-12-20T11:43:34;5.07;;;1.92;;
17753;SDS011;8999;48.994;9.150;2023-12-20T11:46:08;4.20;;;1.90;;
17753;SDS011;8999;48.994;9.150;2023-12-20T11:48:40;6.53;;;2.13;;
17753;SDS011;8999;48.994;9.150;2023-12-20T11:51:14;2.60;;;1.75;;
17753;SDS011;8999;48.994;9.150;2023-12-20T11:53:50;10.13;;;2.22;;
17753;SDS011;8999;48.994;9.150;2023-12-20T11:56:22;5.72;;;2.13;;
17753;SDS011;8999;48.994;9.150;2023-12-20T11:58:54;7.88;;;2.30;;
17753;SDS011;8999;48.994;9.150;2023-12-20T12:01:28;4.95;;;2.20;;
17753;SDS011;8999;48.994;9.150;2023-12-20T12:04:03;4.30;;;1.85;;
17753;SDS011;8999;48.994;9.150;2023-12-20T12:06:34;5.72;;;1.73;;
17753;SDS011;8999;48.994;9.150;2023-12-20T12:09:06;6.60;;;1.92;;
17753;SDS011;8999;48.994;9.150;2023-12-20T12:11:38;3.28;;;1.50;;
17753;SDS011;8999;48.994;9.150;2023-12-20T12:14:09;7.45;;;1.52;;
17753;SDS011;8999;48.994;9.150;2023-12-20T12:16:42;5.28;;;1.63;;
17753;SDS011;8999;48.994;9.150;2023-12-20T12:19:20;7.55;;;2.25;;
17753;SDS011;8999;48.994;9.150;2023-12-20T12:22:03;3.90;;;1.67;;
17753;SDS011;8999;48.994;9.150;2023-12-20T12:24:35;4.15;;;1.70;;
17753;SDS011;8999;48.994;9.150;2023-12-20T12:27:07;4.75;;;2.22;;
17753;SDS011;8999;48.994;9.150;2023-12-20T12:29:39;5.25;;;2.05;;
17753;SDS011;8999;48.994;9.150;2023-12-20T12:32:12;6.10;;;2.00;;
17753;SDS011;8999;48.994;9.150;2023-12-20T12:34:43;6.63;;;1.83;;
17753;SDS011;8999;48.994;9.150;2023-12-20T12:37:15;4.88;;;1.65;;
17753;SDS011;8999;48.994;9.150;2023-12-20T12:39:47;5.88;;;2.10;;
17753;SDS011;8999;48.994;9.150;2023-12-20T12:42:19;6.10;;;1.75;;
17753;SDS011;8999;48.994;9.150;2023-12-20T12:44:55;7.63;;;2.10;;
17753;SDS011;8999;48.994;9.150;2023-12-20T12:47:28;9.07;;;1.77;;
17753;SDS011;8999;48.994;9.150;2023-12-20T12:50:00;5.82;;;1.80;;
17753;SDS011;8999;48.994;9.150;2023-12-20T12:52:32;5.85;;;1.90;;
17753;SDS011;8999;48.994;9.150;2023-12-20T12:55:05;4.82;;;1.80;;
17753;SDS011;8999;48.994;9.150;2023-12-20T12:57:38;9.68;;;2.00;;
17753;SDS011;8999;48.994;9.150;2023-12-20T13:00:10;5.82;;;2.05;;
17753;SDS011;8999;48.994;9.150;2023-12-20T13:02:43;3.42;;;1.80;;
17753;SDS011;8999;48.994;9.150;2023-12-20T13:05:15;6.93;;;1.92;;
17753;SDS011;8999;48.994;9.150;2023-12-20T13:07:49;8.20;;;2.40;;
17753;SDS011;8999;48.994;9.150;2023-12-20T13:10:21;5.38;;;2.00;;
17753;SDS011;8999;48.994;9.150;2023-12-20T13:12:57;5.35;;;1.90;;
17753;SDS011;8999;48.994;9.150;2023-12-20T13:15:29;4.57;;;1.80;;
17753;SDS011;8999;48.994;9.150;2023-12-20T13:18:03;5.03;;;1.80;;
17753;SDS011;8999;48.994;9.150;2023-12-20T13:20:38;3.58;;;1.95;;
17753;SDS011;8999;48.994;9.150;2023-12-20T13:23:10;4.88;;;1.85;;
17753;SDS011;8999;48.994;9.150;2023-12-20T13:25:42;5.25;;;1.63;;
17753;SDS011;8999;48.994;9.150;2023-12-20T13:28:15;5.68;;;2.17;;
17753;SDS011;8999;48.994;9.150;2023-12-20T13:30:47;6.57;;;2.05;;
17753;SDS011;8999;48.994;9.150;2023-12-20T13:33:23;2.90;;;1.52;;
17753;SDS011;8999;48.994;9.150;2023-12-20T13:35:54;4.63;;;1.65;;
17753;SDS011;8999;48.994;9.150;2023-12-20T13:38:28;7.53;;;1.95;;
17753;SDS011;8999;48.994;9.150;2023-12-20T13:41:00;56.50;;;26.33;;
17753;SDS011;8999;48.994;9.150;2023-12-20T13:43:34;7.47;;;2.13;;
17753;SDS011;8999;48.994;9.150;2023-12-20T13:46:06;7.38;;;3.10;;
17753;SDS011;8999;48.994;9.150;2023-12-20T13:48:39;8.23;;;3.08;;
17753;SDS011;8999;48.994;9.150;2023-12-20T13:51:11;5.05;;;2.28;;
17753;SDS011;8999;48.994;9.150;2023-12-20T13:53:43;7.90;;;2.90;;
17753;SDS011;8999;48.994;9.150;2023-12-20T13:56:14;10.82;;;5.18;;
17753;SDS011;8999;48.994;9.150;2023-12-20T13:58:46;3.42;;;1.50;;
17753;SDS011;8999;48.994;9.150;2023-12-20T14:01:18;8.15;;;2.10;;
17753;SDS011;8999;48.994;9.150;2023-12-20T14:03:51;6.03;;;2.42;;
17753;SDS011;8999;48.994;9.150;2023-12-20T14:06:23;6.07;;;2.10;;
17753;SDS011;8999;48.994;9.150;2023-12-20T14:08:55;8.52;;;3.58;;
17753;SDS011;8999;48.994;9.150;2023-12-20T14:11:27;7.03;;;4.15;;
17753;SDS011;8999;48.994;9.150;2023-12-20T14:13:59;6.30;;;2.10;;
17753;SDS011;8999;48.994;9.150;2023-12-20T14:16:32;3.08;;;1.60;;
17753;SDS011;8999;48.994;9.150;2023-12-20T14:19:05;7.78;;;1.80;;
17753;SDS011;8999;48.994;9.150;2023-12-20T14:21:39;6.18;;;2.83;;
17753;SDS011;8999;48.994;9.150;2023-12-20T14:24:12;4.30;;;1.80;;
17753;SDS011;8999;48.994;9.150;2023-12-20T14:26:44;6.43;;;2.25;;
17753;SDS011;8999;48.994;9.150;2023-12-20T14:29:16;5.80;;;2.15;;
17753;SDS011;8999;48.994;9.150;2023-12-20T14:31:48;13.10;;;4.53;;
17753;SDS011;8999;48.994;9.150;2023-12-20T14:34:22;5.78;;;2.28;;
17753;SDS011;8999;48.994;9.150;2023-12-20T14:36:54;9.15;;;2.70;;
17753;SDS011;8999;48.994;9.150;2023-12-20T14:39:26;5.82;;;2.05;;
17753;SDS011;8999;48.994;9.150;2023-12-20T14:41:58;6.75;;;2.40;;
17753;SDS011;8999;48.994;9.150;2023-12-20T14:44:30;8.27;;;2.22;;
17753;SDS011;8999;48.994;9.150;2023-12-20T14:47:01;9.60;;;2.20;;
17753;SDS011;8999;48.994;9.150;2023-12-20T14:49:35;6.50;;;2.00;;
17753;SDS011;8999;48.994;9.150;2023-12-20T14:52:07;46.35;;;20.08;;
17753;SDS011;8999;48.994;9.150;2023-12-20T14:54:41;8.60;;;2.60;;
17753;SDS011;8999;48.994;9.150;2023-12-20T14:57:13;8.88;;;2.03;;
17753;SDS011;8999;48.994;9.150;2023-12-20T14:59:45;5.45;;;2.00;;
17753;SDS011;8999;48.994;9.150;2023-12-20T15:02:17;7.25;;;1.73;;
17753;SDS011;8999;48.994;9.150;2023-12-20T15:04:50;14.77;;;5.72;;
17753;SDS011;8999;48.994;9.150;2023-12-20T15:07:22;9.60;;;2.30;;
17753;SDS011;8999;48.994;9.150;2023-12-20T15:09:54;8.60;;;2.30;;
17753;SDS011;8999;48.994;9.150;2023-12-20T15:12:26;6.93;;;1.77;;
17753;SDS011;8999;48.994;9.150;2023-12-20T15:14:58;32.40;;;13.85;;
17753;SDS011;8999;48.994;9.150;2023-12-20T15:17:30;10.35;;;2.35;;
17753;SDS011;8999;48.994;9.150;2023-12-20T15:20:04;5.45;;;1.95;;
17753;SDS011;8999;48.994;9.150;2023-12-20T15:22:36;7.65;;;1.95;;
17753;SDS011;8999;48.994;9.150;2023-12-20T15:25:08;6.28;;;1.73;;
17753;SDS011;8999;48.994;9.150;2023-12-20T15:27:40;8.70;;;1.85;;
17753;SDS011;8999;48.994;9.150;2023-12-20T15:30:12;9.88;;;2.28;;
17753;SDS011;8999;48.994;9.150;2023-12-20T15:32:44;24.02;;;10.55;;